sensor_id;sensor_type;location;lat;lon;timestamp;P1;durP1;ratioP1;P2;durP2;ratioP2
78732;SDS011;68056;52.530;5.454;2023-12-14T00:01:54;5.10;;;4.18;;
78732;SDS011;68056;52.530;5.454;2023-12-14T00:04:20;5.22;;;3.80;;
78732;SDS011;68056;52.530;5.454;2023-12-14T00:06:45;4.43;;;3.72;;
78732;SDS011;68056;52.530;5.454;2023-12-14T00:09:11;5.22;;;4.25;;
78732;SDS011;68056;52.530;5.454;2023-12-14T00:11:39;4.50;;;4.07;;
78732;SDS011;68056;52.530;5.454;2023-12-14T00:14:05;5.88;;;4.38;;
78732;SDS011;68056;52.530;5.454;2023-12-14T00:16:31;6.45;;;4.93;;
78732;SDS011;68056;52.530;5.454;2023-12-14T00:18:57;6.38;;;4.50;;
78732;SDS011;68056;52.530;5.454;2023-12-14T00:21:22;6.85;;;4.82;;
78732;SDS011;68056;52.530;5.454;2023-12-14T00:23:48;6.00;;;4.75;;
78732;SDS011;68056;52.530;5.454;2023-12-14T00:26:14;6.20;;;4.72;;
78732;SDS011;68056;52.530;5.454;2023-12-14T00:28:39;6.43;;;4.68;;
78732;SDS011;68056;52.530;5.454;2023-12-14T00:31:05;5.47;;;4.15;;
78732;SDS011;68056;52.530;5.454;2023-12-14T00:33:31;5.95;;;3.25;;
78732;SDS011;68056;52.530;5.454;2023-12-14T00:35:57;8.55;;;4.53;;
78732;SDS011;68056;52.530;5.454;2023-12-14T00:38:22;6.50;;;4.50;;
78732;SDS011;68056;52.530;5.454;2023-12-14T00:40:48;6.57;;;4.85;;
78732;SDS011;68056;52.530;5.454;2023-12-14T00:43:14;7.68;;;4.97;;
78732;SDS011;68056;52.530;5.454;2023-12-14T00:45:39;5.50;;;4.15;;
78732;SDS011;68056;52.530;5.454;2023-12-14T00:48:06;6.50;;;5.30;;
78732;SDS011;68056;52.530;5.454;2023-12-14T00:50:32;6.53;;;4.55;;
78732;SDS011;68056;52.530;5.454;2023-12-14T00:52:57;6.28;;;4.70;;
78732;SDS011;68056;52.530;5.454;2023-12-14T00:55:23;6.43;;;4.43;;
78732;SDS011;68056;52.530;5.454;2023-12-14T00:57:48;5.78;;;4.40;;
78732;SDS011;68056;52.530;5.454;2023-12-14T01:00:14;4.65;;;4.03;;
78732;SDS011;68056;52.530;5.454;2023-12-14T01:02:40;5.63;;;4.65;;
78732;SDS011;68056;52.530;5.454;2023-12-14T01:05:05;4.72;;;3.97;;
78732;SDS011;68056;52.530;5.454;2023-12-14T01:07:31;5.43;;;4.40;;
78732;SDS011;68056;52.530;5.454;2023-12-14T01:09:57;7.30;;;5.45;;
78732;SDS011;68056;52.530;5.454;2023-12-14T01:12:22;5.20;;;4.05;;
78732;SDS011;68056;52.530;5.454;2023-12-14T01:14:48;5.78;;;4.93;;
78732;SDS011;68056;52.530;5.454;2023-12-14T01:17:13;5.55;;;4.18;;
78732;SDS011;68056;52.530;5.454;2023-12-14T01:19:39;5.13;;;4.45;;
78732;SDS011;68056;52.530;5.454;2023-12-14T01:22:05;5.60;;;4.20;;
78732;SDS011;68056;52.530;5.454;2023-12-14T01:24:31;5.68;;;4.07;;
78732;SDS011;68056;52.530;5.454;2023-12-14T01:26:57;6.80;;;5.00;;
78732;SDS011;68056;52.530;5.454;2023-12-14T01:29:22;6.60;;;4.50;;
78732;SDS011;68056;52.530;5.454;2023-12-14T01:31:48;6.13;;;3.95;;
78732;SDS011;68056;52.530;5.454;2023-12-14T01:34:13;5.97;;;4.65;;
78732;SDS011;68056;52.530;5.454;2023-12-14T01:36:40;7.15;;;5.05;;
78732;SDS011;68056;52.530;5.454;2023-12-14T01:39:06;7.15;;;4.57;;
78732;SDS011;68056;52.530;5.454;2023-12-14T01:41:32;6.47;;;3.83;;
78732;SDS011;68056;52.530;5.454;2023-12-14T01:43:58;5.55;;;4.03;;
78732;SDS011;68056;52.530;5.454;2023-12-14T01:46:23;6.65;;;5.18;;
78732;SDS011;68056;52.530;5.454;2023-12-14T01:48:49;6.65;;;4.13;;
78732;SDS011;68056;52.530;5.454;2023-12-14T01:51:15;6.13;;;4.80;;
78732;SDS011;68056;52.530;5.454;2023-12-14T01:53:40;7.55;;;4.78;;
78732;SDS011;68056;52.530;5.454;2023-12-14T01:56:06;7.43;;;5.00;;
78732;SDS011;68056;52.530;5.454;2023-12-14T01:58:32;8.95;;;5.18;;
78732;SDS011;68056;52.530;5.454;2023-12-14T02:01:13;6.30;;;4.68;;
78732;SDS011;68056;52.530;5.454;2023-12-14T02:03:52;6.60;;;3.60;;
78732;SDS011;68056;52.530;5.454;2023-12-14T02:06:19;6.05;;;4.68;;
78732;SDS011;68056;52.530;5.454;2023-12-14T02:08:45;5.70;;;4.43;;
78732;SDS011;68056;52.530;5.454;2023-12-14T02:11:11;5.05;;;3.70;;
78732;SDS011;68056;52.530;5.454;2023-12-14T02:13:36;4.90;;;3.42;;
78732;SDS011;68056;52.530;5.454;2023-12-14T02:16:02;5.72;;;3.17;;
78732;SDS011;68056;52.530;5.454;2023-12-14T02:18:28;5.18;;;3.85;;
78732;SDS011;68056;52.530;5.454;2023-12-14T02:20:53;7.22;;;4.15;;
78732;SDS011;68056;52.530;5.454;2023-12-14T02:23:19;4.78;;;3.83;;
78732;SDS011;68056;52.530;5.454;2023-12-14T02:25:45;5.72;;;4.03;;
78732;SDS011;68056;52.530;5.454;2023-12-14T02:28:10;4.15;;;3.75;;
78732;SDS011;68056;52.530;5.454;2023-12-14T02:30:36;4.80;;;3.95;;
78732;SDS011;68056;52.530;5.454;2023-12-14T02:33:01;3.95;;;3.00;;
78732;SDS011;68056;52.530;5.454;2023-12-14T02:35:27;5.43;;;3.47;;
78732;SDS011;68056;52.530;5.454;2023-12-14T02:37:53;5.53;;;3.90;;
78732;SDS011;68056;52.530;5.454;2023-12-14T02:40:18;4.15;;;3.28;;
78732;SDS011;68056;52.530;5.454;2023-12-14T02:42:44;6.85;;;3.58;;
78732;SDS011;68056;52.530;5.454;2023-12-14T02:45:09;5.93;;;3.58;;
78732;SDS011;68056;52.530;5.454;2023-12-14T02:47:35;4.10;;;3.35;;
78732;SDS011;68056;52.530;5.454;2023-12-14T02:50:01;6.47;;;4.20;;
78732;SDS011;68056;52.530;5.454;2023-12-14T02:52:26;4.63;;;3.22;;
78732;SDS011;68056;52.530;5.454;2023-12-14T02:54:52;4.60;;;3.42;;
78732;SDS011;68056;52.530;5.454;2023-12-14T02:57:17;3.78;;;2.97;;
78732;SDS011;68056;52.530;5.454;2023-12-14T02:59:43;6.32;;;3.90;;
78732;SDS011;68056;52.530;5.454;2023-12-14T03:02:09;6.18;;;3.42;;
78732;SDS011;68056;52.530;5.454;2023-12-14T03:04:37;4.63;;;3.22;;
78732;SDS011;68056;52.530;5.454;2023-12-14T03:07:04;6.90;;;3.60;;
78732;SDS011;68056;52.530;5.454;2023-12-14T03:09:29;4.25;;;3.13;;
78732;SDS011;68056;52.530;5.454;2023-12-14T03:11:55;4.18;;;3.03;;
78732;SDS011;68056;52.530;5.454;2023-12-14T03:14:21;3.67;;;2.67;;
78732;SDS011;68056;52.530;5.454;2023-12-14T03:16:46;4.55;;;2.70;;
78732;SDS011;68056;52.530;5.454;2023-12-14T03:19:13;5.13;;;2.90;;
78732;SDS011;68056;52.530;5.454;2023-12-14T03:21:40;3.67;;;2.90;;
78732;SDS011;68056;52.530;5.454;2023-12-14T03:24:06;3.40;;;2.97;;
78732;SDS011;68056;52.530;5.454;2023-12-14T03:26:32;3.72;;;2.63;;
78732;SDS011;68056;52.530;5.454;2023-12-14T03:28:58;4.88;;;3.70;;
78732;SDS011;68056;52.530;5.454;2023-12-14T03:31:23;4.32;;;2.95;;
78732;SDS011;68056;52.530;5.454;2023-12-14T03:33:49;4.85;;;3.08;;
78732;SDS011;68056;52.530;5.454;2023-12-14T03:36:14;5.22;;;3.75;;
78732;SDS011;68056;52.530;5.454;2023-12-14T03:38:40;3.95;;;2.58;;
78732;SDS011;68056;52.530;5.454;2023-12-14T03:41:05;3.17;;;2.67;;
78732;SDS011;68056;52.530;5.454;2023-12-14T03:43:31;2.60;;;2.40;;
78732;SDS011;68056;52.530;5.454;2023-12-14T03:45:56;4.07;;;3.03;;
78732;SDS011;68056;52.530;5.454;2023-12-14T03:48:22;3.58;;;2.30;;
78732;SDS011;68056;52.530;5.454;2023-12-14T03:50:47;3.63;;;2.25;;
78732;SDS011;68056;52.530;5.454;2023-12-14T03:53:13;3.03;;;1.95;;
78732;SDS011;68056;52.530;5.454;2023-12-14T03:55:39;4.15;;;2.75;;
78732;SDS011;68056;52.530;5.454;2023-12-14T03:58:04;3.08;;;2.03;;
78732;SDS011;68056;52.530;5.454;2023-12-14T04:00:30;2.75;;;2.10;;
78732;SDS011;68056;52.530;5.454;2023-12-14T04:02:56;3.17;;;2.55;;
78732;SDS011;68056;52.530;5.454;2023-12-14T04:05:22;2.50;;;2.05;;
78732;SDS011;68056;52.530;5.454;2023-12-14T04:07:48;3.53;;;2.80;;
78732;SDS011;68056;52.530;5.454;2023-12-14T04:10:13;3.13;;;2.15;;
78732;SDS011;68056;52.530;5.454;2023-12-14T04:12:39;3.65;;;2.15;;
78732;SDS011;68056;52.530;5.454;2023-12-14T04:15:05;4.20;;;2.53;;
78732;SDS011;68056;52.530;5.454;2023-12-14T04:17:32;3.20;;;2.40;;
78732;SDS011;68056;52.530;5.454;2023-12-14T04:19:58;4.65;;;2.70;;
78732;SDS011;68056;52.530;5.454;2023-12-14T04:22:24;3.00;;;2.40;;
78732;SDS011;68056;52.530;5.454;2023-12-14T04:24:50;3.45;;;2.42;;
78732;SDS011;68056;52.530;5.454;2023-12-14T04:27:15;2.25;;;2.05;;
78732;SDS011;68056;52.530;5.454;2023-12-14T04:29:41;2.97;;;2.60;;
78732;SDS011;68056;52.530;5.454;2023-12-14T04:32:07;3.55;;;2.78;;
78732;SDS011;68056;52.530;5.454;2023-12-14T04:34:33;4.65;;;2.83;;
78732;SDS011;68056;52.530;5.454;2023-12-14T04:36:58;4.40;;;2.83;;
78732;SDS011;68056;52.530;5.454;2023-12-14T04:39:24;2.92;;;2.47;;
78732;SDS011;68056;52.530;5.454;2023-12-14T04:41:50;2.97;;;2.17;;
78732;SDS011;68056;52.530;5.454;2023-12-14T04:44:17;3.03;;;2.45;;
78732;SDS011;68056;52.530;5.454;2023-12-14T04:46:46;2.40;;;2.20;;
78732;SDS011;68056;52.530;5.454;2023-12-14T04:49:15;3.90;;;2.25;;
78732;SDS011;68056;52.530;5.454;2023-12-14T04:51:41;3.20;;;2.72;;
78732;SDS011;68056;52.530;5.454;2023-12-14T04:54:07;3.80;;;2.60;;
78732;SDS011;68056;52.530;5.454;2023-12-14T04:56:33;4.63;;;2.92;;
78732;SDS011;68056;52.530;5.454;2023-12-14T04:58:59;3.28;;;2.67;;
78732;SDS011;68056;52.530;5.454;2023-12-14T05:01:24;3.47;;;2.55;;
78732;SDS011;68056;52.530;5.454;2023-12-14T05:03:51;3.63;;;2.28;;
78732;SDS011;68056;52.530;5.454;2023-12-14T05:06:17;3.45;;;2.50;;
78732;SDS011;68056;52.530;5.454;2023-12-14T05:08:43;4.60;;;3.22;;
78732;SDS011;68056;52.530;5.454;2023-12-14T05:11:08;3.42;;;2.40;;
78732;SDS011;68056;52.530;5.454;2023-12-14T05:13:34;4.60;;;3.22;;
78732;SDS011;68056;52.530;5.454;2023-12-14T05:16:00;3.60;;;2.92;;
78732;SDS011;68056;52.530;5.454;2023-12-14T05:18:26;2.97;;;2.30;;
78732;SDS011;68056;52.530;5.454;2023-12-14T05:20:52;3.10;;;2.72;;
78732;SDS011;68056;52.530;5.454;2023-12-14T05:23:18;3.72;;;2.75;;
78732;SDS011;68056;52.530;5.454;2023-12-14T05:25:44;4.72;;;2.85;;
78732;SDS011;68056;52.530;5.454;2023-12-14T05:28:09;3.30;;;2.30;;
78732;SDS011;68056;52.530;5.454;2023-12-14T05:30:35;3.17;;;2.47;;
78732;SDS011;68056;52.530;5.454;2023-12-14T05:33:01;4.18;;;2.58;;
78732;SDS011;68056;52.530;5.454;2023-12-14T05:35:26;3.53;;;2.90;;
78732;SDS011;68056;52.530;5.454;2023-12-14T05:37:52;3.15;;;2.45;;
78732;SDS011;68056;52.530;5.454;2023-12-14T05:40:18;2.55;;;2.30;;
78732;SDS011;68056;52.530;5.454;2023-12-14T05:42:43;3.13;;;2.45;;
78732;SDS011;68056;52.530;5.454;2023-12-14T05:45:09;4.13;;;2.60;;
78732;SDS011;68056;52.530;5.454;2023-12-14T05:47:35;2.58;;;2.35;;
78732;SDS011;68056;52.530;5.454;2023-12-14T05:50:01;2.67;;;2.35;;
78732;SDS011;68056;52.530;5.454;2023-12-14T05:52:26;2.58;;;2.00;;
78732;SDS011;68056;52.530;5.454;2023-12-14T05:54:52;3.97;;;3.00;;
78732;SDS011;68056;52.530;5.454;2023-12-14T05:57:18;2.75;;;2.45;;
78732;SDS011;68056;52.530;5.454;2023-12-14T05:59:44;2.75;;;2.22;;
78732;SDS011;68056;52.530;5.454;2023-12-14T06:02:09;3.08;;;2.40;;
78732;SDS011;68056;52.530;5.454;2023-12-14T06:04:35;3.72;;;2.35;;
78732;SDS011;68056;52.530;5.454;2023-12-14T06:07:00;3.08;;;2.55;;
78732;SDS011;68056;52.530;5.454;2023-12-14T06:09:26;2.45;;;1.85;;
78732;SDS011;68056;52.530;5.454;2023-12-14T06:11:59;2.20;;;2.00;;
78732;SDS011;68056;52.530;5.454;2023-12-14T06:14:26;2.70;;;1.95;;
78732;SDS011;68056;52.530;5.454;2023-12-14T06:16:51;2.72;;;2.42;;
78732;SDS011;68056;52.530;5.454;2023-12-14T06:19:17;2.83;;;2.55;;
78732;SDS011;68056;52.530;5.454;2023-12-14T06:21:43;2.25;;;1.92;;
78732;SDS011;68056;52.530;5.454;2023-12-14T06:24:08;2.08;;;1.85;;
78732;SDS011;68056;52.530;5.454;2023-12-14T06:26:34;2.80;;;2.40;;
78732;SDS011;68056;52.530;5.454;2023-12-14T06:28:59;3.60;;;2.42;;
78732;SDS011;68056;52.530;5.454;2023-12-14T06:31:25;2.65;;;2.08;;
78732;SDS011;68056;52.530;5.454;2023-12-14T06:33:50;2.60;;;2.38;;
78732;SDS011;68056;52.530;5.454;2023-12-14T06:36:16;1.70;;;1.25;;
78732;SDS011;68056;52.530;5.454;2023-12-14T06:38:42;4.35;;;1.75;;
78732;SDS011;68056;52.530;5.454;2023-12-14T06:41:17;2.85;;;2.00;;
78732;SDS011;68056;52.530;5.454;2023-12-14T06:43:44;2.10;;;1.90;;
78732;SDS011;68056;52.530;5.454;2023-12-14T06:46:09;3.17;;;2.30;;
78732;SDS011;68056;52.530;5.454;2023-12-14T06:48:35;2.55;;;2.13;;
78732;SDS011;68056;52.530;5.454;2023-12-14T06:51:00;3.47;;;2.03;;
78732;SDS011;68056;52.530;5.454;2023-12-14T06:53:26;2.58;;;2.17;;
78732;SDS011;68056;52.530;5.454;2023-12-14T06:55:51;2.78;;;2.50;;
78732;SDS011;68056;52.530;5.454;2023-12-14T06:58:17;3.92;;;1.95;;
78732;SDS011;68056;52.530;5.454;2023-12-14T07:00:43;3.58;;;2.15;;
78732;SDS011;68056;52.530;5.454;2023-12-14T07:03:09;2.80;;;2.17;;
78732;SDS011;68056;52.530;5.454;2023-12-14T07:05:34;3.25;;;2.05;;
78732;SDS011;68056;52.530;5.454;2023-12-14T07:08:00;3.28;;;2.00;;
78732;SDS011;68056;52.530;5.454;2023-12-14T07:10:25;2.30;;;2.10;;
78732;SDS011;68056;52.530;5.454;2023-12-14T07:12:51;2.70;;;1.88;;
78732;SDS011;68056;52.530;5.454;2023-12-14T07:15:17;2.88;;;1.67;;
78732;SDS011;68056;52.530;5.454;2023-12-14T07:17:43;3.85;;;2.65;;
78732;SDS011;68056;52.530;5.454;2023-12-14T07:20:09;2.60;;;2.25;;
78732;SDS011;68056;52.530;5.454;2023-12-14T07:22:36;2.03;;;1.60;;
78732;SDS011;68056;52.530;5.454;2023-12-14T07:25:01;3.22;;;2.33;;
78732;SDS011;68056;52.530;5.454;2023-12-14T07:27:28;3.08;;;2.35;;
78732;SDS011;68056;52.530;5.454;2023-12-14T07:29:54;3.03;;;2.10;;
78732;SDS011;68056;52.530;5.454;2023-12-14T07:32:20;2.90;;;2.35;;
78732;SDS011;68056;52.530;5.454;2023-12-14T07:34:46;2.92;;;2.15;;
78732;SDS011;68056;52.530;5.454;2023-12-14T07:37:12;2.30;;;2.05;;
78732;SDS011;68056;52.530;5.454;2023-12-14T07:39:37;2.53;;;2.05;;
78732;SDS011;68056;52.530;5.454;2023-12-14T07:42:03;2.70;;;2.50;;
78732;SDS011;68056;52.530;5.454;2023-12-14T07:44:28;3.60;;;1.80;;
78732;SDS011;68056;52.530;5.454;2023-12-14T07:46:55;2.90;;;2.38;;
78732;SDS011;68056;52.530;5.454;2023-12-14T07:49:21;5.85;;;2.35;;
78732;SDS011;68056;52.530;5.454;2023-12-14T07:51:48;3.25;;;2.08;;
78732;SDS011;68056;52.530;5.454;2023-12-14T07:54:14;2.17;;;1.95;;
78732;SDS011;68056;52.530;5.454;2023-12-14T07:56:40;1.77;;;1.40;;
78732;SDS011;68056;52.530;5.454;2023-12-14T07:59:06;2.60;;;1.73;;
78732;SDS011;68056;52.530;5.454;2023-12-14T08:01:33;4.40;;;2.03;;
78732;SDS011;68056;52.530;5.454;2023-12-14T08:03:59;2.45;;;2.25;;
78732;SDS011;68056;52.530;5.454;2023-12-14T08:06:24;4.00;;;2.80;;
78732;SDS011;68056;52.530;5.454;2023-12-14T08:08:50;4.20;;;2.65;;
78732;SDS011;68056;52.530;5.454;2023-12-14T08:11:15;5.55;;;4.05;;
78732;SDS011;68056;52.530;5.454;2023-12-14T08:13:41;5.40;;;3.03;;
78732;SDS011;68056;52.530;5.454;2023-12-14T08:16:07;4.47;;;3.00;;
78732;SDS011;68056;52.530;5.454;2023-12-14T08:18:33;5.20;;;3.22;;
78732;SDS011;68056;52.530;5.454;2023-12-14T08:20:59;3.08;;;2.30;;
78732;SDS011;68056;52.530;5.454;2023-12-14T08:23:24;4.75;;;2.85;;
78732;SDS011;68056;52.530;5.454;2023-12-14T08:28:18;2.78;;;2.28;;
78732;SDS011;68056;52.530;5.454;2023-12-14T08:30:44;2.95;;;2.60;;
78732;SDS011;68056;52.530;5.454;2023-12-14T08:33:09;3.70;;;2.78;;
78732;SDS011;68056;52.530;5.454;2023-12-14T08:35:35;3.20;;;2.55;;
78732;SDS011;68056;52.530;5.454;2023-12-14T08:38:01;5.32;;;3.25;;
78732;SDS011;68056;52.530;5.454;2023-12-14T08:40:26;6.05;;;4.13;;
78732;SDS011;68056;52.530;5.454;2023-12-14T08:42:52;9.65;;;4.15;;
78732;SDS011;68056;52.530;5.454;2023-12-14T08:45:18;5.85;;;2.72;;
78732;SDS011;68056;52.530;5.454;2023-12-14T08:47:43;3.40;;;2.63;;
78732;SDS011;68056;52.530;5.454;2023-12-14T08:50:09;4.97;;;3.78;;
78732;SDS011;68056;52.530;5.454;2023-12-14T08:52:34;4.10;;;2.22;;
78732;SDS011;68056;52.530;5.454;2023-12-14T08:55:00;3.00;;;2.55;;
78732;SDS011;68056;52.530;5.454;2023-12-14T08:57:27;3.53;;;2.92;;
78732;SDS011;68056;52.530;5.454;2023-12-14T08:59:52;3.40;;;2.20;;
78732;SDS011;68056;52.530;5.454;2023-12-14T09:02:18;2.75;;;2.03;;
78732;SDS011;68056;52.530;5.454;2023-12-14T09:04:43;3.78;;;2.60;;
78732;SDS011;68056;52.530;5.454;2023-12-14T09:07:09;3.70;;;2.78;;
78732;SDS011;68056;52.530;5.454;2023-12-14T09:09:34;2.58;;;2.35;;
78732;SDS011;68056;52.530;5.454;2023-12-14T09:12:00;3.20;;;2.38;;
78732;SDS011;68056;52.530;5.454;2023-12-14T09:14:25;4.72;;;2.50;;
78732;SDS011;68056;52.530;5.454;2023-12-14T09:16:51;3.88;;;2.00;;
78732;SDS011;68056;52.530;5.454;2023-12-14T09:19:17;3.53;;;2.13;;
78732;SDS011;68056;52.530;5.454;2023-12-14T09:21:43;2.38;;;2.17;;
78732;SDS011;68056;52.530;5.454;2023-12-14T09:24:09;3.38;;;2.58;;
78732;SDS011;68056;52.530;5.454;2023-12-14T09:26:34;3.22;;;2.08;;
78732;SDS011;68056;52.530;5.454;2023-12-14T09:29:00;2.90;;;2.22;;
78732;SDS011;68056;52.530;5.454;2023-12-14T09:31:25;3.03;;;1.95;;
78732;SDS011;68056;52.530;5.454;2023-12-14T09:33:51;2.70;;;2.20;;
78732;SDS011;68056;52.530;5.454;2023-12-14T09:36:17;2.33;;;1.83;;
78732;SDS011;68056;52.530;5.454;2023-12-14T09:38:42;2.83;;;1.48;;
78732;SDS011;68056;52.530;5.454;2023-12-14T09:41:08;2.08;;;1.77;;
78732;SDS011;68056;52.530;5.454;2023-12-14T09:43:33;2.95;;;1.92;;
78732;SDS011;68056;52.530;5.454;2023-12-14T09:45:59;2.67;;;1.80;;
78732;SDS011;68056;52.530;5.454;2023-12-14T09:48:25;3.28;;;2.22;;
78732;SDS011;68056;52.530;5.454;2023-12-14T09:55:44;4.28;;;2.30;;
78732;SDS011;68056;52.530;5.454;2023-12-14T09:58:09;3.55;;;3.03;;
78732;SDS011;68056;52.530;5.454;2023-12-14T10:00:36;3.78;;;3.30;;
78732;SDS011;68056;52.530;5.454;2023-12-14T10:03:23;4.30;;;2.70;;
78732;SDS011;68056;52.530;5.454;2023-12-14T10:05:51;4.05;;;3.00;;
78732;SDS011;68056;52.530;5.454;2023-12-14T10:08:17;3.25;;;2.50;;
78732;SDS011;68056;52.530;5.454;2023-12-14T10:10:44;5.43;;;3.38;;
78732;SDS011;68056;52.530;5.454;2023-12-14T10:13:11;3.72;;;2.58;;
78732;SDS011;68056;52.530;5.454;2023-12-14T10:15:41;6.60;;;2.78;;
78732;SDS011;68056;52.530;5.454;2023-12-14T10:18:10;4.25;;;2.50;;
78732;SDS011;68056;52.530;5.454;2023-12-14T10:20:36;4.95;;;3.00;;
78732;SDS011;68056;52.530;5.454;2023-12-14T10:23:03;3.88;;;2.83;;
78732;SDS011;68056;52.530;5.454;2023-12-14T10:25:29;4.30;;;2.88;;
78732;SDS011;68056;52.530;5.454;2023-12-14T10:27:55;4.32;;;2.90;;
78732;SDS011;68056;52.530;5.454;2023-12-14T10:30:22;3.53;;;2.45;;
78732;SDS011;68056;52.530;5.454;2023-12-14T10:32:48;3.83;;;2.53;;
78732;SDS011;68056;52.530;5.454;2023-12-14T10:35:14;3.60;;;2.92;;
78732;SDS011;68056;52.530;5.454;2023-12-14T10:37:44;3.60;;;3.03;;
78732;SDS011;68056;52.530;5.454;2023-12-14T10:40:11;4.22;;;2.97;;
78732;SDS011;68056;52.530;5.454;2023-12-14T10:42:39;4.65;;;2.55;;
78732;SDS011;68056;52.530;5.454;2023-12-14T10:45:08;2.80;;;2.47;;
78732;SDS011;68056;52.530;5.454;2023-12-14T10:47:39;4.40;;;2.70;;
78732;SDS011;68056;52.530;5.454;2023-12-14T10:50:07;5.20;;;2.92;;
78732;SDS011;68056;52.530;5.454;2023-12-14T10:52:37;2.78;;;2.40;;
78732;SDS011;68056;52.530;5.454;2023-12-14T10:55:07;3.30;;;2.67;;
78732;SDS011;68056;52.530;5.454;2023-12-14T10:57:45;4.18;;;2.30;;
78732;SDS011;68056;52.530;5.454;2023-12-14T11:00:17;2.83;;;1.70;;
78732;SDS011;68056;52.530;5.454;2023-12-14T11:02:45;3.28;;;1.88;;
78732;SDS011;68056;52.530;5.454;2023-12-14T11:05:12;2.28;;;1.70;;
78732;SDS011;68056;52.530;5.454;2023-12-14T11:07:48;2.13;;;1.83;;
78732;SDS011;68056;52.530;5.454;2023-12-14T11:10:27;2.15;;;1.80;;
78732;SDS011;68056;52.530;5.454;2023-12-14T11:13:01;3.60;;;2.15;;
78732;SDS011;68056;52.530;5.454;2023-12-14T11:15:34;3.70;;;1.88;;
78732;SDS011;68056;52.530;5.454;2023-12-14T11:23:10;3.42;;;2.50;;
78732;SDS011;68056;52.530;5.454;2023-12-14T11:25:38;4.03;;;2.38;;
78732;SDS011;68056;52.530;5.454;2023-12-14T11:28:07;2.72;;;2.25;;
78732;SDS011;68056;52.530;5.454;2023-12-14T11:30:35;3.15;;;2.60;;
78732;SDS011;68056;52.530;5.454;2023-12-14T11:33:02;2.92;;;1.63;;
78732;SDS011;68056;52.530;5.454;2023-12-14T11:35:28;2.72;;;2.00;;
78732;SDS011;68056;52.530;5.454;2023-12-14T11:37:54;2.72;;;2.13;;
78732;SDS011;68056;52.530;5.454;2023-12-14T11:40:24;3.47;;;2.50;;
78732;SDS011;68056;52.530;5.454;2023-12-14T11:43:00;2.22;;;1.92;;
78732;SDS011;68056;52.530;5.454;2023-12-14T11:45:31;3.22;;;2.00;;
78732;SDS011;68056;52.530;5.454;2023-12-14T11:47:57;3.33;;;2.53;;
78732;SDS011;68056;52.530;5.454;2023-12-14T11:50:22;2.15;;;1.48;;
78732;SDS011;68056;52.530;5.454;2023-12-14T11:52:48;1.90;;;1.60;;
78732;SDS011;68056;52.530;5.454;2023-12-14T11:55:14;1.98;;;1.65;;
78732;SDS011;68056;52.530;5.454;2023-12-14T11:57:45;4.47;;;2.10;;
78732;SDS011;68056;52.530;5.454;2023-12-14T12:00:11;3.47;;;1.67;;
78732;SDS011;68056;52.530;5.454;2023-12-14T12:02:38;3.60;;;2.17;;
78732;SDS011;68056;52.530;5.454;2023-12-14T12:05:05;3.45;;;2.17;;
78732;SDS011;68056;52.530;5.454;2023-12-14T12:07:31;4.20;;;2.30;;
78732;SDS011;68056;52.530;5.454;2023-12-14T12:09:58;4.60;;;2.35;;
78732;SDS011;68056;52.530;5.454;2023-12-14T12:12:24;3.55;;;2.40;;
78732;SDS011;68056;52.530;5.454;2023-12-14T12:14:50;4.72;;;3.20;;
78732;SDS011;68056;52.530;5.454;2023-12-14T12:17:17;4.35;;;2.60;;
78732;SDS011;68056;52.530;5.454;2023-12-14T12:19:44;3.35;;;2.28;;
78732;SDS011;68056;52.530;5.454;2023-12-14T12:22:10;3.05;;;2.65;;
78732;SDS011;68056;52.530;5.454;2023-12-14T12:24:36;3.47;;;2.50;;
78732;SDS011;68056;52.530;5.454;2023-12-14T12:27:02;4.20;;;1.95;;
78732;SDS011;68056;52.530;5.454;2023-12-14T12:29:29;3.38;;;2.30;;
78732;SDS011;68056;52.530;5.454;2023-12-14T12:31:55;4.93;;;2.65;;
78732;SDS011;68056;52.530;5.454;2023-12-14T12:34:21;1.88;;;1.73;;
78732;SDS011;68056;52.530;5.454;2023-12-14T12:36:46;2.33;;;1.88;;
78732;SDS011;68056;52.530;5.454;2023-12-14T12:39:12;4.55;;;2.10;;
78732;SDS011;68056;52.530;5.454;2023-12-14T12:41:38;3.75;;;2.15;;
78732;SDS011;68056;52.530;5.454;2023-12-14T12:44:04;5.47;;;2.17;;
78732;SDS011;68056;52.530;5.454;2023-12-14T12:46:37;2.80;;;2.00;;
78732;SDS011;68056;52.530;5.454;2023-12-14T12:49:03;3.60;;;2.35;;
78732;SDS011;68056;52.530;5.454;2023-12-14T12:51:30;2.42;;;1.92;;
78732;SDS011;68056;52.530;5.454;2023-12-14T12:53:59;3.67;;;2.20;;
78732;SDS011;68056;52.530;5.454;2023-12-14T12:56:28;3.88;;;2.15;;
78732;SDS011;68056;52.530;5.454;2023-12-14T12:58:54;2.85;;;1.95;;
78732;SDS011;68056;52.530;5.454;2023-12-14T13:01:22;1.95;;;1.55;;
78732;SDS011;68056;52.530;5.454;2023-12-14T13:03:52;2.90;;;1.65;;
78732;SDS011;68056;52.530;5.454;2023-12-14T13:06:19;3.40;;;2.10;;
78732;SDS011;68056;52.530;5.454;2023-12-14T13:08:46;2.38;;;1.52;;
78732;SDS011;68056;52.530;5.454;2023-12-14T13:11:11;5.43;;;2.03;;
78732;SDS011;68056;52.530;5.454;2023-12-14T13:13:37;1.50;;;1.20;;
78732;SDS011;68056;52.530;5.454;2023-12-14T13:16:02;2.38;;;1.67;;
78732;SDS011;68056;52.530;5.454;2023-12-14T13:18:28;3.00;;;1.75;;
78732;SDS011;68056;52.530;5.454;2023-12-14T13:20:54;3.53;;;1.63;;
78732;SDS011;68056;52.530;5.454;2023-12-14T13:23:19;3.00;;;1.98;;
78732;SDS011;68056;52.530;5.454;2023-12-14T13:25:45;4.68;;;2.30;;
78732;SDS011;68056;52.530;5.454;2023-12-14T13:28:10;1.83;;;1.63;;
78732;SDS011;68056;52.530;5.454;2023-12-14T13:30:37;3.92;;;2.33;;
78732;SDS011;68056;52.530;5.454;2023-12-14T13:33:02;3.25;;;1.83;;
78732;SDS011;68056;52.530;5.454;2023-12-14T13:35:29;2.67;;;1.90;;
78732;SDS011;68056;52.530;5.454;2023-12-14T13:37:54;2.50;;;1.55;;
78732;SDS011;68056;52.530;5.454;2023-12-14T13:40:20;2.33;;;1.52;;
78732;SDS011;68056;52.530;5.454;2023-12-14T13:42:45;1.70;;;1.42;;
78732;SDS011;68056;52.530;5.454;2023-12-14T13:45:11;4.38;;;2.22;;
78732;SDS011;68056;52.530;5.454;2023-12-14T13:47:36;3.28;;;1.95;;
78732;SDS011;68056;52.530;5.454;2023-12-14T13:50:02;3.55;;;1.65;;
78732;SDS011;68056;52.530;5.454;2023-12-14T13:52:29;4.15;;;1.85;;
78732;SDS011;68056;52.530;5.454;2023-12-14T13:54:55;2.47;;;1.63;;
78732;SDS011;68056;52.530;5.454;2023-12-14T13:57:21;4.90;;;1.92;;
78732;SDS011;68056;52.530;5.454;2023-12-14T13:59:47;2.55;;;1.90;;
78732;SDS011;68056;52.530;5.454;2023-12-14T14:02:13;2.78;;;2.20;;
78732;SDS011;68056;52.530;5.454;2023-12-14T14:04:38;3.10;;;1.70;;
78732;SDS011;68056;52.530;5.454;2023-12-14T14:07:05;2.83;;;2.50;;
78732;SDS011;68056;52.530;5.454;2023-12-14T14:09:30;4.22;;;2.25;;
78732;SDS011;68056;52.530;5.454;2023-12-14T14:11:57;2.67;;;2.17;;
78732;SDS011;68056;52.530;5.454;2023-12-14T14:14:23;2.47;;;1.58;;
78732;SDS011;68056;52.530;5.454;2023-12-14T14:16:49;3.58;;;2.58;;
78732;SDS011;68056;52.530;5.454;2023-12-14T14:19:14;3.13;;;2.40;;
78732;SDS011;68056;52.530;5.454;2023-12-14T14:21:40;4.05;;;2.90;;
78732;SDS011;68056;52.530;5.454;2023-12-14T14:24:06;3.63;;;2.40;;
78732;SDS011;68056;52.530;5.454;2023-12-14T14:26:32;4.93;;;2.70;;
78732;SDS011;68056;52.530;5.454;2023-12-14T14:28:57;3.85;;;2.35;;
78732;SDS011;68056;52.530;5.454;2023-12-14T14:31:27;4.70;;;3.03;;
78732;SDS011;68056;52.530;5.454;2023-12-14T14:33:56;2.83;;;2.35;;
78732;SDS011;68056;52.530;5.454;2023-12-14T14:36:25;3.72;;;2.00;;
78732;SDS011;68056;52.530;5.454;2023-12-14T14:38:51;3.85;;;2.05;;
78732;SDS011;68056;52.530;5.454;2023-12-14T14:41:19;2.13;;;1.50;;
78732;SDS011;68056;52.530;5.454;2023-12-14T14:43:44;2.28;;;2.03;;
78732;SDS011;68056;52.530;5.454;2023-12-14T14:46:10;3.38;;;2.25;;
78732;SDS011;68056;52.530;5.454;2023-12-14T14:48:36;2.38;;;1.98;;
78732;SDS011;68056;52.530;5.454;2023-12-14T14:51:02;4.50;;;2.20;;
78732;SDS011;68056;52.530;5.454;2023-12-14T14:53:28;4.57;;;2.50;;
78732;SDS011;68056;52.530;5.454;2023-12-14T14:55:54;5.38;;;2.70;;